This is the latest recevied weather packets stored in our database for station/object KMASWX. If no packets are shown the sender has not sent any weather packets the latest 1 day(s).
| Time | Temp. | Humidity | Pressure | Rain* | Wind** | Luminosity | Snow |
|---|---|---|---|---|---|---|---|
| 1777999051 | 17.22° C | 41% | - | 0 mm | 0 m/s | - | - |
| 1777998747 | 16.67° C | 41% | - | 0 mm | 0.89 m/s, 199° | - | - |
| 1777998443 | 16.11° C | 44% | - | 0 mm | 0.45 m/s, 182° | - | - |
| 1777997833 | 15.56° C | 45% | - | 0 mm | 2.24 m/s, 226° | - | - |
| 1777997226 | 15.56° C | 45% | - | 0 mm | 2.24 m/s, 241° | - | - |
| 1777996314 | 15° C | 48% | - | 0 mm | 2.24 m/s, 257° | - | - |
| 1777996010 | 14.44° C | 48% | - | 0 mm | 0.89 m/s, 246° | - | - |
| 1777995707 | 14.44° C | 51% | - | 0 mm | 2.24 m/s, 230° | - | - |
| 1777994785 | 13.89° C | 51% | - | 0 mm | 1.79 m/s, 219° | - | - |
| 1777994478 | 13.89° C | 52% | - | 0 mm | 1.34 m/s, 234° | - | - |
| 1777994175 | 13.33° C | 52% | - | 0 mm | 1.79 m/s, 244° | - | - |
| 1777993568 | 13.89° C | 50% | - | 0 mm | 1.79 m/s, 250° | - | - |
| 1777993262 | 13.89° C | 52% | - | 0 mm | 0 m/s | - | - |
| 1777992958 | 13.89° C | 52% | - | 0 mm | 0.89 m/s, 232° | - | - |
| 1777992654 | 13.89° C | 51% | - | 0 mm | 0 m/s | - | - |
| 1777992351 | 14.44° C | 51% | - | 0 mm | 0 m/s | - | - |
| 1777992045 | 13.89° C | 52% | - | 0 mm | 0 m/s | - | - |
| 1777991740 | 13.33° C | 53% | - | 0 mm | 0 m/s | - | - |
| 1777991129 | 13.89° C | 54% | - | 0 mm | 0 m/s | - | - |
| 1777990522 | 13.33° C | 55% | - | 0 mm | 0 m/s | - | - |
| 1777990215 | 12.22° C | 56% | - | 0 mm | 0 m/s | - | - |
| 1777989911 | 11.67° C | 57% | - | 0 mm | 0 m/s | - | - |
| 1777989604 | 11.11° C | 60% | - | 0 mm | 0 m/s | - | - |
| 1777988997 | 10° C | 62% | - | 0 mm | 0.45 m/s, 23° | - | - |
| 1777988690 | 9.44° C | 63% | - | 0 mm | 0.89 m/s, 0° | - | - |
* Rain latest 24 hours (hover to see other rain measurements)
** Current wind speed in m/s (hover to see current wind gust speed)